ADDS METAR Data INFO
IDs: Format: Raw Decoded Include TAF

Data at: 1626 UTC 25 Apr 2018

KT82 251615Z AUTO 19006KT 10SM CLR 25/07 A3011 RMK AO2 T02490073
KT82 251555Z AUTO 22005KT 10SM SCT070 25/07 A3012 RMK AO2 T02510074
KT82 251535Z AUTO 19006KT 10SM BKN070 24/07 A3012 RMK AO2 T02440066
KT82 251515Z AUTO 20006KT 10SM SCT070 24/07 A3012 RMK AO2 T02370071
KT82 251455Z AUTO 22007KT 10SM SCT070 23/09 A3012 RMK AO2 T02250089
KT82 251435Z AUTO 00000KT 10SM CLR 21/10 A3013 RMK AO2 T02050096
KT82 251415Z AUTO 00000KT 10SM CLR 20/10 A3013 RMK AO2 T01950095
KT82 251355Z AUTO 00000KT 10SM CLR 18/11 A3013 RMK AO2 T01840105
KT82 251335Z AUTO 00000KT 10SM CLR 17/11 A3012 RMK AO2 T01730111
KT82 251315Z AUTO 00000KT 10SM CLR 16/11 A3013 RMK AO2 T01580107
KT82 251255Z AUTO 00000KT 10SM CLR 14/10 A3012 RMK AO2 T01430100
KT82 251235Z AUTO 00000KT 10SM CLR 12/10 A3012 RMK AO2 T01220095
KT82 251215Z AUTO 00000KT 10SM CLR 12/09 A3011 RMK AO2 T01150088
KT82 251155Z AUTO 00000KT 10SM CLR 12/09 A3010 RMK AO2 T01210090 10182 20115
KT82 251135Z AUTO 00000KT 10SM CLR 13/09 A3009 RMK AO2 T01250091
KT82 251115Z AUTO 00000KT 10SM CLR 12/09 A3010 RMK AO2 T01150088
KT82 251055Z AUTO 00000KT 10SM CLR 13/09 A3009 RMK AO2 T01250090
KT82 251035Z AUTO 00000KT 10SM CLR 14/09 A3007 RMK AO2 T01380092
KT82 251015Z AUTO 11003KT 10SM CLR 15/09 A3006 RMK AO2 T01490092
KT82 250955Z AUTO 00000KT 10SM CLR 15/09 A3006 RMK AO2 T01480093
KT82 250935Z AUTO 06005KT 10SM CLR 14/09 A3006 RMK AO2 T01410094
KT82 250915Z AUTO 09004KT 10SM CLR 14/10 A3004 RMK AO2 T01350096
KT82 250855Z AUTO 00000KT 10SM CLR 13/10 A3004 RMK AO2 T01330096
KT82 250835Z AUTO 13003KT 10SM CLR 13/10 A3006 RMK AO2 T01340101
KT82 250815Z AUTO 00000KT 10SM CLR 14/10 A3007 RMK AO2 T01440098
KT82 250755Z AUTO 00000KT 10SM CLR 16/10 A3008 RMK AO2 T01600102
KT82 250735Z AUTO 00000KT 10SM CLR 16/10 A3008 RMK AO2 T01630102
KT82 250715Z AUTO 00000KT 10SM CLR 17/10 A3008 RMK AO2 T01680100
KT82 250655Z AUTO 12003KT 10SM CLR 18/10 A3008 RMK AO2 T01750100
KT82 250635Z AUTO 13003KT 10SM CLR 18/11 A3009 RMK AO2 T01780105
KT82 250615Z AUTO 36007KT 10SM CLR 16/11 A3010 RMK AO2 T01610107
KT82 250555Z AUTO 00000KT 10SM CLR 18/11 A3008 RMK AO2 T01810106 10277 20180 403030084
KT82 250535Z AUTO 11003KT 10SM CLR 19/11 A3008 RMK AO2 T01870109
KT82 250515Z AUTO 12003KT 10SM CLR 20/11 A3008 RMK AO2 T01950108
KT82 250455Z AUTO 13003KT 10SM CLR 20/11 A3008 RMK AO2 T01990108
KT82 250435Z AUTO 13003KT 10SM CLR 20/10 A3007 RMK AO2 T02000104
KT82 250415Z AUTO 12003KT 10SM CLR 20/10 A3006 RMK AO2 T01970098
KT82 250355Z AUTO 11003KT 10SM CLR 21/10 A3005 RMK AO2 T02080096
KT82 250335Z AUTO 00000KT 10SM CLR 21/10 A3005 RMK AO2 T02070095
KT82 250315Z AUTO 00000KT 10SM CLR 21/10 A3004 RMK AO2 T02100095
KT82 250255Z AUTO 14003KT 10SM CLR 21/10 A3003 RMK AO2 T02140096
KT82 250235Z AUTO 13003KT 10SM CLR 22/09 A3002 RMK AO2 T02160094
KT82 250215Z AUTO 00000KT 10SM CLR 22/09 A3002 RMK AO2 T02220088
KT82 250155Z AUTO 13003KT 10SM CLR 23/09 A3001 RMK AO2 T02300085
KT82 250135Z AUTO 15004KT 10SM CLR 24/08 A3000 RMK AO2 T02380083
KT82 250115Z AUTO 14004KT 10SM CLR 25/09 A3000 RMK AO2 T02460085
KT82 250055Z AUTO 15007KT 10SM CLR 26/09 A2999 RMK AO2 T02580085
KT82 250035Z AUTO 16007KT 10SM CLR 27/09 A2999 RMK AO2 T02650086
KT82 250015Z AUTO 16007G14KT 10SM CLR 27/09 A2999 RMK AO2 T02740085
KT82 242355Z AUTO 17009KT 10SM CLR 27/09 A2999 RMK AO2 T02740085 10303 20274
KT82 242335Z AUTO 16009KT 10SM CLR 29/09 A2999 RMK AO2 T02850086
KT82 242315Z AUTO 16007KT 10SM CLR 29/09 A2999 RMK AO2 T02900090
KT82 242255Z AUTO 17010G14KT 10SM CLR 29/09 A2999 RMK AO2 T02920090
KT82 242235Z AUTO 18010KT 10SM CLR 30/09 A2999 RMK AO2 T02970086
KT82 242215Z AUTO 17008G14KT 10SM CLR 30/08 A2999 RMK AO2 T02960083
KT82 242155Z AUTO 15009KT 090V180 10SM CLR 30/08 A3000 RMK AO2 T03020080
KT82 242135Z AUTO 15005KT 10SM CLR 30/08 A3001 RMK AO2 T02960076
KT82 242115Z AUTO 17006G14KT 10SM CLR 30/08 A3002 RMK AO2 T03030079
KT82 242055Z AUTO 00000KT 10SM CLR 30/08 A3003 RMK AO2 T03000075
KT82 242035Z AUTO 22009KT 10SM CLR 30/07 A3004 RMK AO2 T02980074
KT82 242015Z AUTO 20010KT 10SM CLR 29/06 A3004 RMK AO2 T02940063
KT82 241955Z AUTO 17007G15KT 10SM CLR 29/07 A3005 RMK AO2 T02910073
KT82 241935Z AUTO 19009KT 150V210 10SM CLR 29/08 A3005 RMK AO2 T02940084
KT82 241915Z AUTO 21010KT 10SM CLR 29/09 A3006 RMK AO2 T02900091
KT82 241855Z AUTO 22008KT 10SM CLR 29/09 A3006 RMK AO2 T02850087
KT82 241835Z AUTO 19012G19KT 10SM CLR 29/09 A3007 RMK AO2 T02860087
KT82 241815Z AUTO 20012G19KT 10SM CLR 28/09 A3007 RMK AO2 T02830093
KT82 241755Z AUTO 17010G15KT 10SM CLR 28/10 A3008 RMK AO2 T02800095 10280 20084
KT82 241735Z AUTO 18007KT 150V210 10SM CLR 28/10 A3009 RMK AO2 T02750103
KT82 241715Z AUTO 19007KT 10SM CLR 27/11 A3009 RMK AO2 T02700110
KT82 241655Z AUTO 18007G15KT 10SM CLR 26/13 A3009 RMK AO2 T02640125
KT82 241635Z AUTO 21006KT 10SM CLR 26/12 A3010 RMK AO2 T02580123
KT82 241615Z AUTO 18005KT 10SM CLR 25/13 A3010 RMK AO2 T02540128
KT82 241555Z AUTO 20008KT 10SM CLR 25/13 A3010 RMK AO2 T02450130
KT82 241535Z AUTO 21009KT 10SM CLR 24/13 A3010 RMK AO2 T02400130
KT82 241515Z AUTO 20008KT 160V220 10SM CLR 24/13 A3011 RMK AO2 T02360131
KT82 241455Z AUTO 00000KT 10SM CLR 21/12 A3010 RMK AO2 T02100118
KT82 241435Z AUTO 00000KT 10SM CLR 20/11 A3011 RMK AO2 T01970113
KT82 241415Z AUTO 00000KT 10SM CLR 18/11 A3011 RMK AO2 T01810107
KT82 241355Z AUTO 00000KT 10SM CLR 17/10 A3011 RMK AO2 T01660104
KT82 241335Z AUTO 00000KT 10SM CLR 14/10 A3011 RMK AO2 T01420100
KT82 241315Z AUTO 00000KT 10SM CLR 12/09 A3011 RMK AO2 T01240088
KT82 241255Z AUTO 00000KT 10SM CLR 11/08 A3010 RMK AO2 T01130084
KT82 241235Z AUTO 00000KT 10SM CLR 10/08 A3009 RMK AO2 T00970080
KT82 241215Z AUTO 35004KT 10SM CLR 08/06 A3009 RMK AO2 T00840064
KT82 241155Z AUTO 00000KT 10SM CLR 09/07 A3007 RMK AO2 T00880069 10140 20086
KT82 241135Z AUTO 21003KT 10SM CLR 10/07 A3007 RMK AO2 T00950070
KT82 241115Z AUTO 00000KT 10SM CLR 09/07 A3006 RMK AO2 T00890067
KT82 241055Z AUTO 32003KT 10SM CLR 09/07 A3006 RMK AO2 T00900066
KT82 241035Z AUTO 32003KT 10SM CLR 10/07 A3004 RMK AO2 T00950067
KT82 241015Z AUTO 00000KT 10SM CLR 10/07 A3004 RMK AO2 T01000069
KT82 240955Z AUTO 00000KT 10SM CLR 10/07 A3004 RMK AO2 T01010070
KT82 240935Z AUTO 00000KT 10SM CLR 10/07 A3005 RMK AO2 T00990070
KT82 240915Z AUTO 00000KT 10SM CLR 10/07 A3004 RMK AO2 T01030071
KT82 240855Z AUTO 00000KT 10SM CLR 10/07 A3004 RMK AO2 T01010069
KT82 240835Z AUTO 00000KT 10SM CLR 11/07 A3004 RMK AO2 T01070071
KT82 240815Z AUTO 00000KT 10SM CLR 11/07 A3004 RMK AO2 T01070073
KT82 240755Z AUTO 32003KT 10SM CLR 11/08 A3006 RMK AO2 T01140075
KT82 240735Z AUTO 00000KT 10SM CLR 12/08 A3006 RMK AO2 T01170078
KT82 240715Z AUTO 33003KT 10SM CLR 12/08 A3006 RMK AO2 T01190076
KT82 240655Z AUTO 00000KT 10SM CLR 12/08 A3006 RMK AO2 T01230080
KT82 240635Z AUTO 00000KT 10SM CLR 13/08 A3007 RMK AO2 T01310082
KT82 240615Z AUTO 00000KT 10SM CLR 12/08 A3007 RMK AO2 T01200083
KT82 240555Z AUTO 00000KT 10SM CLR 13/08 A3007 RMK AO2 T01290080 10274 20129 402850062
KT82 240535Z AUTO 00000KT 10SM CLR 14/09 A3007 RMK AO2 T01410086
KT82 240515Z AUTO 00000KT 10SM CLR 15/09 A3007 RMK AO2 T01480085
KT82 240455Z AUTO 00000KT 10SM CLR 16/09 A3007 RMK AO2 T01570086
KT82 240435Z AUTO 00000KT 10SM CLR 16/08 A3007 RMK AO2 T01560084